Time;durP1;ratioP1;P1;durP2;ratioP2;P2;SDS_P1;SDS_P2;PMS_P1;PMS_P2;Temp;Humidity;BMP_temperature;BMP_pressure;BME280_temperature;BME280_humidity;BME280_pressure;Samples;Min_cycle;Max_cycle;Signal;HPM_P1;HPM_P2
2022/11/23 00:01:21;;;;;;;3.28;1.30;;;6.00;99.90;;;;;;5097380;28;20020;-68
2022/11/23 00:03:50;;;;;;;2.38;1.30;;;6.00;99.90;;;;;;5097073;28;20024;-69
2022/11/23 00:06:20;;;;;;;2.42;1.10;;;6.10;99.90;;;;;;5097324;28;20031;-68
2022/11/23 00:08:48;;;;;;;1.95;1.10;;;6.10;99.90;;;;;;5096770;28;20320;-69
2022/11/23 00:11:17;;;;;;;3.45;1.30;;;6.10;99.90;;;;;;5097011;28;20053;-69
2022/11/23 00:13:45;;;;;;;2.85;1.13;;;6.20;99.90;;;;;;5096884;28;20016;-68
2022/11/23 00:16:18;;;;;;;5.15;1.25;;;6.20;99.90;;;;;;5096689;28;20426;-69
2022/11/23 00:18:45;;;;;;;2.05;1.20;;;6.20;99.90;;;;;;5096630;28;20024;-69
2022/11/23 00:21:16;;;;;;;5.45;1.20;;;6.20;99.90;;;;;;5097182;28;20400;-68
2022/11/23 00:23:45;;;;;;;4.78;1.27;;;6.30;99.90;;;;;;5078836;28;20027;-69
2022/11/23 00:26:13;;;;;;;2.85;1.10;;;6.30;99.90;;;;;;5097169;28;20031;-69
2022/11/23 00:28:41;;;;;;;4.55;1.80;;;6.30;99.90;;;;;;5096589;28;20146;-69
2022/11/23 00:31:14;;;;;;;1.95;0.90;;;6.40;99.90;;;;;;5100449;28;20043;-69
2022/11/23 00:33:42;;;;;;;2.63;1.08;;;6.30;99.90;;;;;;5100857;28;20358;-69
2022/11/23 00:36:14;;;;;;;2.83;0.95;;;6.30;99.90;;;;;;5101195;28;20013;-69
2022/11/23 00:38:42;;;;;;;2.00;0.90;;;6.30;99.90;;;;;;5101228;28;20016;-69
2022/11/23 00:41:13;;;;;;;2.80;0.90;;;6.30;99.90;;;;;;5099906;28;20082;-69
2022/11/23 00:43:40;;;;;;;8.10;1.60;;;6.30;99.90;;;;;;5100761;28;20321;-69
2022/11/23 00:46:16;;;;;;;1.83;1.00;;;6.30;99.90;;;;;;5100785;28;20016;-69
2022/11/23 00:48:48;;;;;;;1.60;1.00;;;6.30;99.90;;;;;;5082453;28;20020;-69
2022/11/23 00:51:19;;;;;;;2.60;1.45;;;6.40;99.90;;;;;;5100943;28;20055;-69
2022/11/23 00:53:46;;;;;;;3.95;1.48;;;6.40;99.90;;;;;;5100453;28;20024;-69
2022/11/23 00:56:14;;;;;;;2.80;1.35;;;6.40;99.90;;;;;;5100418;28;20127;-69
2022/11/23 00:58:41;;;;;;;5.55;1.73;;;6.40;99.90;;;;;;5082357;28;20024;-69
2022/11/23 01:01:14;;;;;;;4.40;1.25;;;6.40;99.90;;;;;;5100800;28;20103;-69
2022/11/23 01:03:44;;;;;;;7.30;1.30;;;6.40;99.90;;;;;;5100292;28;20093;-69
2022/11/23 01:06:14;;;;;;;6.25;1.83;;;6.40;99.90;;;;;;5100702;28;20047;-69
2022/11/23 01:08:41;;;;;;;6.70;2.47;;;6.40;99.90;;;;;;5100115;28;20031;-68
2022/11/23 01:11:11;;;;;;;14.63;2.60;;;6.50;99.90;;;;;;5081933;28;20092;-69
2022/11/23 01:13:40;;;;;;;11.13;3.15;;;6.50;99.90;;;;;;5082010;28;20027;-69
2022/11/23 01:16:19;;;;;;;15.00;3.72;;;6.50;99.90;;;;;;5099950;28;20481;-69
2022/11/23 01:18:46;;;;;;;10.18;2.22;;;6.50;99.90;;;;;;5099849;28;20416;-68
2022/11/23 01:21:14;;;;;;;10.20;3.63;;;6.50;99.90;;;;;;5081824;28;20020;-69
2022/11/23 01:23:41;;;;;;;14.27;3.63;;;6.50;99.90;;;;;;5099988;28;20028;-69
2022/11/23 01:26:10;;;;;;;4.82;2.17;;;6.50;99.90;;;;;;5100285;28;20023;-69
2022/11/23 01:28:39;;;;;;;6.95;1.90;;;6.40;99.90;;;;;;5099873;28;20020;-68
2022/11/23 01:31:12;;;;;;;14.98;3.55;;;6.40;99.90;;;;;;5099589;28;20020;-68
2022/11/23 01:33:40;;;;;;;6.82;2.60;;;6.40;99.90;;;;;;5099608;28;20323;-68
2022/11/23 01:36:19;;;;;;;6.10;1.20;;;6.40;99.90;;;;;;5099582;28;20063;-68
2022/11/23 01:38:48;;;;;;;6.55;2.00;;;6.40;99.90;;;;;;5099624;28;20016;-68
2022/11/23 01:41:19;;;;;;;7.82;1.92;;;6.50;99.90;;;;;;5098617;28;20031;-69
2022/11/23 01:43:47;;;;;;;4.65;2.20;;;6.50;99.90;;;;;;5099435;28;20470;-68
2022/11/23 01:46:14;;;;;;;4.60;1.25;;;6.50;99.90;;;;;;5099656;28;20028;-69
2022/11/23 01:48:53;;;;;;;5.82;1.50;;;6.50;99.90;;;;;;5099741;28;20473;-69
2022/11/23 01:51:34;;;;;;;4.05;1.75;;;6.50;99.90;;;;;;5099807;28;20054;-69
2022/11/23 01:54:08;;;;;;;12.65;3.25;;;6.50;99.90;;;;;;5099814;28;20051;-68
2022/11/23 01:56:44;;;;;;;4.05;1.23;;;6.60;99.90;;;;;;5099136;28;20052;-68
2022/11/23 01:59:17;;;;;;;10.18;2.58;;;6.60;99.90;;;;;;5099342;28;20016;-69
2022/11/23 02:01:45;;;;;;;6.68;1.85;;;6.60;99.90;;;;;;5099654;28;20027;-68
2022/11/23 02:04:19;;;;;;;5.53;1.23;;;6.60;99.90;;;;;;5098970;28;20428;-68
2022/11/23 02:06:47;;;;;;;4.65;1.40;;;6.60;99.90;;;;;;5099523;28;20400;-68
2022/11/23 02:09:16;;;;;;;5.20;1.20;;;6.60;99.90;;;;;;5099583;28;20047;-69
2022/11/23 02:11:44;;;;;;;4.43;1.40;;;6.50;99.90;;;;;;5098934;28;20012;-68
2022/11/23 02:14:11;;;;;;;6.80;1.60;;;6.60;99.90;;;;;;5080920;28;20020;-69
2022/11/23 02:16:39;;;;;;;9.10;2.20;;;6.60;99.90;;;;;;5098763;28;20024;-69
2022/11/23 02:19:38;;;;;;;9.45;1.50;;;6.60;99.90;;;;;;5098830;28;20024;-69
2022/11/23 02:22:14;;;;;;;11.35;1.88;;;6.60;99.90;;;;;;5082082;28;20145;-68
2022/11/23 02:24:53;;;;;;;8.07;3.30;;;6.60;99.90;;;;;;5098696;28;20021;-68
2022/11/23 02:27:21;;;;;;;5.43;1.60;;;6.60;99.90;;;;;;5098553;28;20031;-68
2022/11/23 02:29:50;;;;;;;5.30;1.75;;;6.60;99.90;;;;;;5098449;28;20051;-68
2022/11/23 02:32:23;;;;;;;5.28;1.50;;;6.60;99.90;;;;;;5098717;28;20020;-68
2022/11/23 02:34:50;;;;;;;6.40;1.77;;;6.60;99.90;;;;;;5098390;28;20027;-68
2022/11/23 02:37:18;;;;;;;5.18;1.98;;;6.60;99.90;;;;;;5098611;28;20396;-68
2022/11/23 02:39:52;;;;;;;5.18;1.92;;;6.60;99.90;;;;;;5080365;28;20047;-69
2022/11/23 02:42:20;;;;;;;7.38;1.80;;;6.60;99.90;;;;;;5098838;28;20032;-68
2022/11/23 02:45:03;;;;;;;6.28;1.70;;;6.60;99.90;;;;;;5098353;28;20031;-68
2022/11/23 02:47:30;;;;;;;11.55;1.65;;;6.60;99.90;;;;;;5098782;28;20023;-68
2022/11/23 02:49:58;;;;;;;8.98;1.65;;;6.60;99.90;;;;;;5098543;28;20054;-68
2022/11/23 02:52:25;;;;;;;3.95;2.22;;;6.60;99.90;;;;;;5097695;28;20020;-68
2022/11/23 02:54:52;;;;;;;4.63;1.60;;;6.60;99.90;;;;;;5098199;28;20026;-68
2022/11/23 02:57:20;;;;;;;6.22;1.50;;;6.60;99.90;;;;;;5097878;28;20036;-68
2022/11/23 02:59:48;;;;;;;4.78;2.00;;;6.60;99.90;;;;;;5098505;28;20024;-68
2022/11/23 03:02:15;;;;;;;5.28;1.50;;;6.60;99.90;;;;;;5080190;28;20363;-68
2022/11/23 03:04:43;;;;;;;12.00;1.70;;;6.60;99.90;;;;;;5079965;28;20051;-68
2022/11/23 03:07:10;;;;;;;8.38;1.60;;;6.60;99.90;;;;;;5098367;28;20051;-68
2022/11/23 03:09:38;;;;;;;7.43;1.90;;;6.60;99.90;;;;;;5097680;28;20293;-68
2022/11/23 03:12:05;;;;;;;8.23;2.00;;;6.60;99.90;;;;;;5097688;28;20031;-69
2022/11/23 03:14:32;;;;;;;3.63;1.40;;;6.60;99.90;;;;;;5098425;28;20103;-68
2022/11/23 03:17:00;;;;;;;9.55;1.48;;;6.70;99.90;;;;;;5097630;28;20091;-68
2022/11/23 03:19:27;;;;;;;4.97;1.90;;;6.70;99.90;;;;;;5079548;28;20028;-68
2022/11/23 03:21:55;;;;;;;6.43;1.70;;;6.70;99.90;;;;;;5097518;28;20052;-69
2022/11/23 03:24:22;;;;;;;11.10;1.75;;;6.70;99.90;;;;;;5098160;28;20016;-69
2022/11/23 03:26:49;;;;;;;9.32;2.28;;;6.70;99.90;;;;;;5097419;28;20467;-68
2022/11/23 03:29:17;;;;;;;6.13;1.50;;;6.70;99.90;;;;;;5097316;28;20020;-69
2022/11/23 03:31:44;;;;;;;4.72;1.50;;;6.70;99.90;;;;;;5097399;28;20027;-68
2022/11/23 03:34:11;;;;;;;3.90;1.40;;;6.70;99.90;;;;;;5097601;28;20020;-68
2022/11/23 03:36:39;;;;;;;5.32;1.70;;;6.70;99.90;;;;;;5097272;28;20016;-68
2022/11/23 03:39:07;;;;;;;6.75;1.80;;;6.80;99.90;;;;;;5079199;28;20027;-68
2022/11/23 03:41:34;;;;;;;3.40;1.77;;;6.80;99.90;;;;;;5096430;28;20047;-69
2022/11/23 03:44:01;;;;;;;6.30;1.42;;;6.80;99.90;;;;;;5097129;28;20020;-68
2022/11/23 03:46:28;;;;;;;6.82;1.77;;;6.80;99.90;;;;;;5079102;28;20111;-68
2022/11/23 03:48:56;;;;;;;5.13;1.65;;;6.80;99.90;;;;;;5097198;28;20320;-68
2022/11/23 03:51:23;;;;;;;5.82;1.60;;;6.80;99.90;;;;;;5097596;28;20393;-68
2022/11/23 03:53:50;;;;;;;6.63;1.60;;;6.80;99.90;;;;;;5097884;28;20016;-68
2022/11/23 03:56:18;;;;;;;5.25;1.50;;;6.80;99.90;;;;;;5097013;28;20052;-69
2022/11/23 03:58:46;;;;;;;6.13;1.80;;;6.80;99.90;;;;;;5079017;28;20024;-69
2022/11/23 04:01:13;;;;;;;5.13;1.42;;;6.80;99.90;;;;;;5096869;28;20071;-69
2022/11/23 04:03:40;;;;;;;8.50;1.98;;;6.80;99.90;;;;;;5096429;28;20420;-68
2022/11/23 04:06:08;;;;;;;7.75;1.90;;;6.80;99.90;;;;;;5078661;28;20028;-69
2022/11/23 04:08:35;;;;;;;8.15;1.70;;;6.80;99.90;;;;;;5096839;28;20045;-69
2022/11/23 04:11:02;;;;;;;8.35;2.03;;;6.80;99.90;;;;;;5097246;28;20020;-68
2022/11/23 04:13:29;;;;;;;3.58;1.50;;;6.90;99.90;;;;;;5097420;28;20020;-69
2022/11/23 04:15:57;;;;;;;5.07;1.50;;;6.90;99.90;;;;;;5078779;28;20052;-69
2022/11/23 04:18:24;;;;;;;5.75;1.98;;;6.90;99.90;;;;;;5096632;28;20051;-68
2022/11/23 04:20:51;;;;;;;6.20;1.77;;;6.90;99.90;;;;;;5096941;28;20379;-69
2022/11/23 04:23:19;;;;;;;3.38;1.50;;;6.90;99.90;;;;;;5097341;28;20024;-68
2022/11/23 04:25:47;;;;;;;6.68;1.60;;;6.90;99.90;;;;;;5078668;28;20028;-69
2022/11/23 04:28:14;;;;;;;4.45;1.70;;;6.90;99.90;;;;;;5097160;28;20054;-68
2022/11/23 04:30:42;;;;;;;4.07;1.77;;;7.00;99.90;;;;;;5097068;28;20157;-68
2022/11/23 04:33:09;;;;;;;3.28;1.25;;;7.00;99.90;;;;;;5096676;28;20023;-68
2022/11/23 04:35:36;;;;;;;4.72;1.65;;;7.00;99.90;;;;;;5096801;28;20020;-68
2022/11/23 04:38:04;;;;;;;6.85;2.60;;;6.90;99.90;;;;;;5096491;28;20324;-69
2022/11/23 04:40:31;;;;;;;5.45;1.42;;;6.90;99.90;;;;;;5096543;28;20024;-69
2022/11/23 04:42:59;;;;;;;4.25;1.90;;;6.90;99.90;;;;;;5097065;28;20411;-69
2022/11/23 04:45:26;;;;;;;8.20;1.63;;;6.90;99.90;;;;;;5096445;28;20035;-69
2022/11/23 04:47:53;;;;;;;3.83;1.33;;;7.00;99.90;;;;;;5096790;28;20149;-68
2022/11/23 04:50:21;;;;;;;4.18;1.52;;;7.00;99.90;;;;;;5096900;28;20024;-68
2022/11/23 04:52:49;;;;;;;6.38;2.25;;;7.00;99.90;;;;;;5096974;28;20024;-69
2022/11/23 04:55:16;;;;;;;6.38;2.42;;;7.00;99.90;;;;;;5096681;28;20440;-69
2022/11/23 04:57:44;;;;;;;9.50;2.13;;;7.00;99.90;;;;;;5096918;28;20095;-69
2022/11/23 05:00:12;;;;;;;5.18;1.83;;;7.00;99.90;;;;;;5096564;28;20319;-68
2022/11/23 05:02:39;;;;;;;7.32;2.90;;;7.00;99.90;;;;;;5078317;28;20032;-68
2022/11/23 05:05:06;;;;;;;10.52;1.65;;;7.00;99.90;;;;;;5096255;28;20020;-68
2022/11/23 05:07:34;;;;;;;3.15;1.95;;;7.00;99.90;;;;;;5078326;28;20028;-69
2022/11/23 05:10:02;;;;;;;3.80;1.45;;;7.00;99.90;;;;;;5096740;28;20116;-68
2022/11/23 05:12:30;;;;;;;8.00;1.90;;;6.90;99.90;;;;;;5096342;28;20030;-69
2022/11/23 05:14:57;;;;;;;4.53;1.35;;;6.90;99.90;;;;;;5096161;28;20024;-68
2022/11/23 05:17:24;;;;;;;4.18;1.75;;;6.80;99.90;;;;;;5081988;28;20316;-69
2022/11/23 05:19:51;;;;;;;6.13;1.85;;;6.80;99.90;;;;;;5081810;28;20031;-69
2022/11/23 05:22:19;;;;;;;10.43;2.75;;;6.70;99.90;;;;;;5100000;28;20103;-69
2022/11/23 05:24:46;;;;;;;4.85;2.10;;;6.60;99.90;;;;;;5099832;28;20024;-69
2022/11/23 05:27:13;;;;;;;6.70;2.20;;;6.50;99.90;;;;;;5100293;28;20028;-69
2022/11/23 05:29:42;;;;;;;8.93;1.90;;;6.50;99.90;;;;;;5100175;28;20020;-69
2022/11/23 05:32:09;;;;;;;3.50;1.48;;;6.50;99.90;;;;;;5100137;28;20027;-69
2022/11/23 05:34:37;;;;;;;7.28;2.63;;;6.50;99.90;;;;;;5099564;28;20016;-69
2022/11/23 05:37:04;;;;;;;8.55;2.20;;;6.40;99.90;;;;;;5099621;28;20013;-69
2022/11/23 05:39:32;;;;;;;4.55;2.00;;;6.40;99.90;;;;;;5081592;28;20536;-69
2022/11/23 05:42:03;;;;;;;5.82;2.17;;;6.30;99.90;;;;;;5100417;28;20405;-68
2022/11/23 05:44:31;;;;;;;4.80;2.05;;;6.30;99.90;;;;;;5099990;28;20028;-69
2022/11/23 05:46:58;;;;;;;7.93;2.42;;;6.30;99.90;;;;;;5099927;28;20412;-69
2022/11/23 05:49:27;;;;;;;9.73;2.38;;;6.30;99.90;;;;;;5099258;28;20034;-69
2022/11/23 05:51:55;;;;;;;6.78;1.85;;;6.30;99.90;;;;;;5099243;28;20027;-68
2022/11/23 05:54:22;;;;;;;10.25;2.10;;;6.30;99.90;;;;;;5099441;28;20025;-68
2022/11/23 05:56:50;;;;;;;6.68;2.00;;;6.30;99.90;;;;;;5099030;28;20047;-69
2022/11/23 05:59:17;;;;;;;8.68;3.03;;;6.40;99.90;;;;;;5081163;28;20119;-69
2022/11/23 06:01:45;;;;;;;4.00;1.65;;;6.40;99.90;;;;;;5099627;28;20020;-68
2022/11/23 06:04:12;;;;;;;4.40;1.73;;;6.40;99.90;;;;;;5081218;28;20420;-68
2022/11/23 06:06:39;;;;;;;9.57;2.08;;;6.30;99.90;;;;;;5098999;28;20031;-69
2022/11/23 06:09:07;;;;;;;9.82;2.10;;;6.30;99.90;;;;;;5099242;28;20104;-69
2022/11/23 06:11:34;;;;;;;9.55;4.18;;;6.30;99.90;;;;;;5099492;28;20108;-69
2022/11/23 06:14:02;;;;;;;4.28;1.55;;;6.30;99.90;;;;;;5099629;28;20024;-69
2022/11/23 06:16:29;;;;;;;7.03;1.80;;;6.30;99.90;;;;;;5098770;28;20020;-68
2022/11/23 06:18:57;;;;;;;5.88;1.67;;;6.30;99.90;;;;;;5080752;28;20050;-69
2022/11/23 06:21:24;;;;;;;4.78;1.88;;;6.30;99.90;;;;;;5098706;28;20020;-68
2022/11/23 06:23:51;;;;;;;5.07;1.80;;;6.30;99.90;;;;;;5098891;28;20294;-68
2022/11/23 06:26:19;;;;;;;7.10;1.27;;;6.30;99.90;;;;;;5099156;28;20100;-69
2022/11/23 06:28:47;;;;;;;4.97;1.45;;;6.30;99.90;;;;;;5098528;28;20155;-68
2022/11/23 06:31:15;;;;;;;8.40;1.95;;;6.40;99.90;;;;;;5099016;28;20024;-69
2022/11/23 06:33:43;;;;;;;5.30;1.55;;;6.40;99.90;;;;;;5098988;28;20016;-68
2022/11/23 06:36:11;;;;;;;7.70;2.10;;;6.40;99.90;;;;;;5098368;28;20027;-69
2022/11/23 06:38:38;;;;;;;9.82;2.40;;;6.50;99.90;;;;;;5098441;28;20019;-70
2022/11/23 06:41:06;;;;;;;9.85;2.30;;;6.50;99.90;;;;;;5098603;28;20028;-70
2022/11/23 06:43:33;;;;;;;6.68;1.60;;;6.50;99.90;;;;;;5098505;28;20305;-71
2022/11/23 06:46:06;;;;;;;6.00;1.98;;;6.50;99.90;;;;;;5098262;28;20020;-70
2022/11/23 06:48:34;;;;;;;7.53;1.75;;;6.60;99.90;;;;;;5098597;28;20103;-70
2022/11/23 06:51:01;;;;;;;5.70;2.00;;;6.60;99.90;;;;;;5098630;28;20447;-69
2022/11/23 06:53:29;;;;;;;3.42;1.50;;;6.70;99.90;;;;;;5098812;28;20027;-70
2022/11/23 06:56:00;;;;;;;8.23;1.98;;;6.70;99.90;;;;;;5076845;28;20083;-70
2022/11/23 06:58:28;;;;;;;6.32;1.55;;;6.70;99.90;;;;;;5077763;28;20021;-69
2022/11/23 07:01:04;;;;;;;6.70;1.63;;;6.70;99.90;;;;;;5077702;28;20145;-70
2022/11/23 07:03:32;;;;;;;5.05;1.65;;;6.70;99.90;;;;;;5077738;28;20442;-72
2022/11/23 07:06:05;;;;;;;6.93;1.90;;;6.80;99.90;;;;;;5077582;28;20058;-73
2022/11/23 07:08:33;;;;;;;4.20;1.70;;;6.80;99.90;;;;;;5078146;28;20020;-73
2022/11/23 07:11:05;;;;;;;4.10;1.60;;;6.70;99.90;;;;;;5077396;28;20112;-72
2022/11/23 07:13:33;;;;;;;5.07;1.95;;;6.70;99.90;;;;;;5076671;28;20020;-72
2022/11/23 07:16:01;;;;;;;5.28;1.92;;;6.60;99.90;;;;;;5077428;28;20024;-73
2022/11/23 07:18:29;;;;;;;4.82;1.88;;;6.60;99.90;;;;;;5077290;28;20404;-72
2022/11/23 07:20:58;;;;;;;5.00;2.25;;;6.60;99.90;;;;;;5077525;28;20032;-73
2022/11/23 07:23:25;;;;;;;5.32;1.50;;;6.60;99.90;;;;;;5077362;28;20055;-76
2022/11/23 07:25:53;;;;;;;5.22;1.48;;;6.60;99.90;;;;;;5077189;28;20055;-76
2022/11/23 07:28:20;;;;;;;3.10;1.05;;;6.70;99.90;;;;;;5077485;28;20344;-76
2022/11/23 07:30:51;;;;;;;5.82;1.15;;;6.70;99.90;;;;;;5077244;28;20017;-75
2022/11/23 07:33:18;;;;;;;3.38;1.85;;;6.80;99.90;;;;;;5077046;28;20364;-76
2022/11/23 07:35:47;;;;;;;5.28;1.73;;;6.80;99.90;;;;;;5076955;28;20150;-76
2022/11/23 07:38:14;;;;;;;3.50;1.35;;;6.90;99.90;;;;;;5077008;28;20017;-76
2022/11/23 07:40:42;;;;;;;5.50;1.30;;;6.90;99.90;;;;;;5076938;28;20028;-76
2022/11/23 07:43:10;;;;;;;3.85;1.40;;;7.00;99.90;;;;;;5076027;28;20029;-75
2022/11/23 07:45:37;;;;;;;4.88;1.40;;;7.00;99.90;;;;;;5075778;28;20122;-73
2022/11/23 07:48:07;;;;;;;7.15;2.15;;;7.10;99.90;;;;;;5077282;28;20025;-76
2022/11/23 07:50:36;;;;;;;6.93;1.80;;;7.10;99.90;;;;;;5076765;28;20028;-76
2022/11/23 07:53:05;;;;;;;7.78;1.60;;;7.20;99.90;;;;;;5077211;28;20017;-76
2022/11/23 07:55:33;;;;;;;7.60;1.48;;;7.20;99.90;;;;;;5075523;28;20037;-75
2022/11/23 07:58:01;;;;;;;5.22;1.50;;;7.20;99.90;;;;;;5076721;28;20048;-78
2022/11/23 08:00:29;;;;;;;4.97;1.23;;;7.20;99.90;;;;;;5077235;28;20367;-77
2022/11/23 08:02:59;;;;;;;4.85;1.60;;;7.20;99.90;;;;;;5077002;28;20028;-73
2022/11/23 08:05:27;;;;;;;3.72;1.20;;;7.30;99.90;;;;;;5075571;28;20421;-75
2022/11/23 08:08:02;;;;;;;9.82;2.97;;;7.40;99.90;;;;;;5076726;28;20440;-75
2022/11/23 08:10:30;;;;;;;2.55;1.08;;;7.50;99.90;;;;;;5077043;28;20028;-73
2022/11/23 08:13:05;;;;;;;8.63;2.28;;;7.50;99.90;;;;;;5077228;28;20107;-74
2022/11/23 08:15:33;;;;;;;4.13;2.15;;;7.60;99.90;;;;;;5075493;28;20025;-69
2022/11/23 08:18:03;;;;;;;6.82;1.30;;;7.60;99.90;;;;;;5076974;28;20351;-72
2022/11/23 08:20:32;;;;;;;5.32;1.50;;;7.70;99.90;;;;;;5077067;28;20451;-72
2022/11/23 08:23:00;;;;;;;4.75;1.20;;;7.70;99.90;;;;;;5077200;28;20020;-72
2022/11/23 08:25:29;;;;;;;3.95;1.35;;;7.80;99.90;;;;;;5076455;28;20021;-71
2022/11/23 08:28:02;;;;;;;6.20;1.40;;;7.80;99.90;;;;;;5076991;28;20344;-73
2022/11/23 08:30:31;;;;;;;6.05;1.30;;;7.90;99.90;;;;;;5076314;28;20021;-72
2022/11/23 08:33:03;;;;;;;4.70;1.63;;;7.90;99.90;;;;;;5076301;28;20321;-72
2022/11/23 08:35:33;;;;;;;5.82;1.13;;;7.90;99.90;;;;;;5076349;28;20321;-71
2022/11/23 08:38:00;;;;;;;6.90;1.25;;;8.00;99.90;;;;;;5075291;28;20021;-71
2022/11/23 08:40:27;;;;;;;4.32;1.13;;;8.00;99.90;;;;;;5075430;28;20423;-76
2022/11/23 08:42:54;;;;;;;8.23;2.75;;;7.90;99.90;;;;;;5076443;28;20408;-75
2022/11/23 08:45:22;;;;;;;8.70;1.50;;;7.90;99.90;;;;;;5075423;28;20380;-75
2022/11/23 08:47:49;;;;;;;8.52;1.60;;;7.90;99.90;;;;;;5076872;28;20138;-75
2022/11/23 08:50:17;;;;;;;4.82;1.30;;;7.90;99.90;;;;;;5077052;28;20052;-75
2022/11/23 08:52:45;;;;;;;8.73;1.45;;;8.00;99.90;;;;;;5079178;28;20431;-75
2022/11/23 08:55:12;;;;;;;5.75;1.27;;;8.00;99.90;;;;;;5082058;28;20017;-73
2022/11/23 08:57:40;;;;;;;4.57;1.50;;;8.10;99.90;;;;;;5100812;28;20032;-71
2022/11/23 09:00:08;;;;;;;8.25;1.58;;;8.10;99.90;;;;;;5082207;28;20027;-72
2022/11/23 09:02:36;;;;;;;10.02;1.40;;;8.10;99.90;;;;;;5100831;28;20043;-74
2022/11/23 09:05:05;;;;;;;3.42;1.10;;;8.10;99.90;;;;;;5100103;28;20046;-72
2022/11/23 09:07:33;;;;;;;7.00;1.42;;;8.10;99.90;;;;;;5082373;28;20028;-72
2022/11/23 09:10:01;;;;;;;4.53;1.10;;;8.10;99.90;;;;;;5100368;28;20020;-72
2022/11/23 09:12:29;;;;;;;3.25;1.15;;;8.10;99.90;;;;;;5100427;28;20023;-72
2022/11/23 09:14:57;;;;;;;3.35;1.35;;;8.20;99.90;;;;;;5099989;28;20027;-72
2022/11/23 09:17:24;;;;;;;7.07;1.75;;;8.20;99.90;;;;;;5082183;28;20027;-72
2022/11/23 09:19:52;;;;;;;6.65;2.03;;;8.30;99.90;;;;;;5100163;28;20031;-72
2022/11/23 09:22:20;;;;;;;4.88;1.15;;;8.40;99.90;;;;;;5081915;28;20357;-72
2022/11/23 09:24:48;;;;;;;2.67;1.80;;;8.40;99.90;;;;;;5100425;28;20028;-72
2022/11/23 09:27:16;;;;;;;3.58;1.30;;;8.50;99.90;;;;;;5082015;28;20435;-72
2022/11/23 09:29:43;;;;;;;6.20;1.33;;;8.50;99.90;;;;;;5099713;28;20075;-72
2022/11/23 09:32:11;;;;;;;10.27;1.35;;;8.60;99.90;;;;;;5099736;28;20095;-72
2022/11/23 09:34:39;;;;;;;4.22;1.15;;;8.60;99.90;;;;;;5099625;28;20023;-72
2022/11/23 09:37:07;;;;;;;4.95;1.10;;;8.70;99.90;;;;;;5099814;28;20020;-72
2022/11/23 09:39:34;;;;;;;5.90;1.55;;;8.70;99.90;;;;;;5100168;28;20043;-72
2022/11/23 09:42:44;;;;;;;7.05;1.38;;;8.80;99.90;;;;;;5099473;28;20369;-72
2022/11/23 09:45:22;;;;;;;7.80;1.45;;;8.80;99.90;;;;;;5099780;28;20372;-72
2022/11/23 09:48:16;;;;;;;4.22;1.05;;;8.80;99.90;;;;;;5100052;28;20020;-72
2022/11/23 09:51:00;;;;;;;8.18;1.13;;;8.90;99.90;;;;;;5099597;28;20028;-72
2022/11/23 09:53:39;;;;;;;4.43;1.25;;;9.00;99.90;;;;;;5099872;28;20289;-72
2022/11/23 09:56:30;;;;;;;6.40;2.13;;;9.00;99.90;;;;;;5099072;28;20044;-72
2022/11/23 09:59:12;;;;;;;6.68;1.27;;;9.00;99.90;;;;;;5099963;28;20447;-72
2022/11/23 10:01:40;;;;;;;5.97;1.33;;;9.10;99.90;;;;;;5098818;28;20297;-72
2022/11/23 10:04:17;;;;;;;3.38;1.35;;;9.10;99.90;;;;;;5098946;28;20016;-72
2022/11/23 10:06:46;;;;;;;5.47;1.40;;;9.20;99.90;;;;;;5099051;28;20073;-72
2022/11/23 10:09:35;;;;;;;4.53;1.27;;;9.20;99.90;;;;;;5099091;28;20420;-72
2022/11/23 10:12:20;;;;;;;5.53;0.95;;;9.30;99.90;;;;;;5099523;28;20095;-72
2022/11/23 10:15:15;;;;;;;7.57;1.30;;;9.30;99.90;;;;;;5099447;28;20028;-72
2022/11/23 10:18:11;;;;;;;3.20;1.27;;;9.40;99.90;;;;;;5099080;28;20070;-72
2022/11/23 10:21:04;;;;;;;6.18;0.85;;;9.50;99.90;;;;;;5099101;28;20035;-72
2022/11/23 10:24:19;;;;;;;2.63;1.00;;;9.60;99.90;;;;;;5099401;28;20099;-72
2022/11/23 10:26:49;;;;;;;2.97;1.00;;;9.60;99.90;;;;;;5088422;28;20036;-72
2022/11/23 10:29:30;;;;;;;2.65;0.88;;;9.60;99.90;;;;;;5098759;28;20020;-72
2022/11/23 10:31:59;;;;;;;3.75;1.08;;;9.60;99.90;;;;;;5080625;28;20031;-72
2022/11/23 10:35:03;;;;;;;7.10;1.15;;;9.70;99.90;;;;;;5098526;28;20028;-72
2022/11/23 10:37:33;;;;;;;3.78;0.90;;;9.70;99.90;;;;;;5098514;28;20016;-72
2022/11/23 10:40:00;;;;;;;5.88;0.90;;;9.70;99.90;;;;;;5098712;28;20107;-72
2022/11/23 10:42:50;;;;;;;5.50;1.02;;;9.80;99.90;;;;;;5080537;28;20070;-72
2022/11/23 10:45:24;;;;;;;4.53;1.20;;;9.90;99.90;;;;;;5098316;28;20074;-71
2022/11/23 10:48:00;;;;;;;2.75;1.02;;;10.00;99.90;;;;;;5098250;28;20019;-72
2022/11/23 10:50:36;;;;;;;3.90;0.98;;;10.00;99.90;;;;;;5098177;28;20034;-72
2022/11/23 10:53:10;;;;;;;2.65;1.02;;;10.10;99.90;;;;;;5098095;28;20059;-72
2022/11/23 10:55:53;;;;;;;6.38;1.23;;;10.10;99.90;;;;;;5098393;28;20054;-72
2022/11/23 10:58:44;;;;;;;10.63;1.88;;;10.00;99.90;;;;;;5098003;28;20066;-72
2022/11/23 11:01:26;;;;;;;7.28;1.83;;;10.00;99.90;;;;;;5098562;28;20020;-71
2022/11/23 11:03:56;;;;;;;5.07;1.15;;;10.00;99.90;;;;;;5097976;28;20305;-72
2022/11/23 11:06:25;;;;;;;4.15;1.55;;;10.00;99.90;;;;;;5097934;28;20020;-72
2022/11/23 11:09:04;;;;;;;4.65;1.70;;;10.10;99.90;;;;;;5098484;28;20099;-72
2022/11/23 11:11:34;;;;;;;7.95;1.90;;;10.00;99.90;;;;;;5097728;28;20348;-72
2022/11/23 11:14:14;;;;;;;10.40;3.42;;;10.00;99.90;;;;;;5079541;28;20021;-72
2022/11/23 11:16:52;;;;;;;7.43;2.30;;;10.00;99.90;;;;;;5097744;28;20035;-72
2022/11/23 11:19:32;;;;;;;4.78;1.17;;;9.90;99.90;;;;;;5097726;28;20101;-72
2022/11/23 11:22:04;;;;;;;3.40;1.23;;;9.90;99.90;;;;;;5097748;28;20027;-72
2022/11/23 11:24:33;;;;;;;4.32;1.23;;;9.80;99.90;;;;;;5097589;28;20018;-72
2022/11/23 11:27:07;;;;;;;5.78;2.25;;;9.80;99.90;;;;;;5098134;28;20104;-72
2022/11/23 11:29:47;;;;;;;3.08;1.27;;;9.70;99.90;;;;;;5097400;28;20107;-72
2022/11/23 11:32:42;;;;;;;4.07;1.10;;;9.70;99.90;;;;;;5097599;28;20020;-72
2022/11/23 11:35:25;;;;;;;5.15;1.45;;;9.70;99.90;;;;;;5097305;28;20020;-72
2022/11/23 11:38:14;;;;;;;2.83;0.95;;;9.60;99.90;;;;;;5097939;28;20019;-72
2022/11/23 11:40:48;;;;;;;7.30;1.00;;;9.60;99.90;;;;;;5097203;28;20106;-72
2022/11/23 11:43:33;;;;;;;3.42;0.90;;;9.50;99.90;;;;;;5079470;28;20036;-72
2022/11/23 11:46:06;;;;;;;5.22;1.50;;;9.50;99.90;;;;;;5097736;28;20020;-72
2022/11/23 11:48:45;;;;;;;4.45;2.00;;;9.40;99.90;;;;;;5097147;28;20028;-72
2022/11/23 11:51:42;;;;;;;5.22;1.10;;;9.40;99.90;;;;;;5097036;28;20039;-71
2022/11/23 11:54:32;;;;;;;7.70;1.08;;;9.50;99.90;;;;;;5097317;28;20016;-71
2022/11/23 11:57:13;;;;;;;7.30;1.20;;;9.50;99.90;;;;;;5096936;28;20444;-71
2022/11/23 11:59:56;;;;;;;3.63;1.05;;;9.50;99.90;;;;;;5097275;28;20106;-72
2022/11/23 12:02:56;;;;;;;11.73;1.85;;;9.60;99.90;;;;;;5097248;28;20020;-72
2022/11/23 12:05:39;;;;;;;3.65;1.13;;;9.70;99.90;;;;;;5097209;28;20051;-73
2022/11/23 12:08:33;;;;;;;8.63;1.15;;;9.80;99.90;;;;;;5097394;28;20084;-72
2022/11/23 12:11:05;;;;;;;4.70;1.50;;;9.90;99.90;;;;;;5096700;28;20020;-72
2022/11/23 12:13:36;;;;;;;7.43;1.30;;;9.80;99.90;;;;;;5097389;28;20403;-71
2022/11/23 12:16:37;;;;;;;6.28;1.27;;;9.80;99.90;;;;;;5096736;28;20020;-71
2022/11/23 12:19:25;;;;;;;7.57;1.35;;;9.80;99.90;;;;;;5096916;28;20375;-72
2022/11/23 12:22:14;;;;;;;7.32;1.17;;;9.90;99.90;;;;;;5097181;28;20016;-74
2022/11/23 12:25:04;;;;;;;6.70;1.10;;;10.10;99.90;;;;;;5096392;28;20020;-74
2022/11/23 12:28:09;;;;;;;6.93;1.50;;;10.20;99.90;;;;;;5096908;28;20028;-74
2022/11/23 12:30:55;;;;;;;7.22;1.25;;;10.20;99.90;;;;;;5096798;28;20108;-74
2022/11/23 12:33:56;;;;;;;4.68;1.20;;;10.20;99.90;;;;;;5096508;28;20012;-71
2022/11/23 12:37:03;;;;;;;7.35;1.17;;;10.10;99.90;;;;;;5096770;28;20027;-72
2022/11/23 12:39:43;;;;;;;10.80;2.08;;;10.00;99.90;;;;;;5096758;28;20026;-70
2022/11/23 12:42:34;;;;;;;9.02;1.60;;;9.90;99.90;;;;;;5096986;28;20430;-70
2022/11/23 12:45:37;;;;;;;5.90;1.50;;;9.90;99.90;;;;;;5076903;28;20028;-71
2022/11/23 12:48:52;;;;;;;8.15;1.15;;;9.90;99.90;;;;;;5094909;28;20324;-71
2022/11/23 12:51:53;;;;;;;7.45;2.05;;;9.80;99.90;;;;;;5074563;28;20040;-71
2022/11/23 12:54:40;;;;;;;7.72;1.73;;;9.70;99.90;;;;;;5096904;28;20028;-71
2022/11/23 12:57:16;;;;;;;;;;;9.60;99.90;;;;;;5096676;28;20384;-70
2022/11/23 12:59:49;;;;;;;8.02;2.50;;;9.60;99.90;;;;;;5096654;28;19910;-70
2022/11/23 13:02:42;;;;;;;7.90;1.42;;;9.50;99.90;;;;;;5097004;28;20103;-71
2022/11/23 13:05:17;;;;;;;8.63;2.25;;;9.50;99.90;;;;;;5096243;28;20464;-71
2022/11/23 13:08:06;;;;;;;10.38;1.58;;;9.50;99.90;;;;;;5096784;28;20028;-70
2022/11/23 13:10:57;;;;;;;5.35;1.27;;;9.40;99.90;;;;;;5096169;28;20027;-71
2022/11/23 13:13:34;;;;;;;7.18;1.38;;;9.40;99.90;;;;;;5078206;28;20324;-70
2022/11/23 13:16:11;;;;;;;8.30;1.92;;;9.40;99.90;;;;;;5078198;28;20027;-71
2022/11/23 13:18:45;;;;;;;4.95;1.67;;;9.40;99.90;;;;;;5096614;28;20020;-71
2022/11/23 13:21:36;;;;;;;7.60;1.40;;;9.40;99.90;;;;;;5096833;28;20308;-71
2022/11/23 13:24:17;;;;;;;10.02;2.08;;;9.30;99.90;;;;;;5096667;28;20325;-71